Dr. Hank Kaplan — WDJ3839 — position and weather

sailwx.info

Track history (hours):
 
Tides and Currents Weather Stations Pressure Air Temp Water Temp Dewpoint Dewpoint Depression Visibility Wind Speed Wind Dir Waves Ship Positions

Dr. Hank Kaplan

Owner: Harley Marine Services, Inc., Seattle, WA. More information available from US FCC via Universal Licensing System and Coast Guard Vessel Documentation Center.

Last reported at 2018-Apr-19 23:00 UTC. Time now 2018-Apr-19 23:21 UTC.
Position N 47°36' W 122°21'.

Length 24 m; draft 5 m.

Type: Tug. MMSI: 367719100.

Date/timePositionNaut miles runAvg speedWind from/ knotsBaromVisibWave heightAir tempDewpointWater temp
2018-Apr-19 23:00N 47°36' W 122°21'1 1.8
2018-Apr-19 22:31N 47°37' W 122°22'2 3.2
2018-Apr-19 22:00N 47°35' W 122°21'0 0.3
2018-Apr-19 21:30N 47°36' W 122°21'1 2.3
2018-Apr-19 21:00N 47°34' W 122°21'0 0.1
2018-Apr-19 20:25N 47°34' W 122°21'0 0.0
2018-Apr-19 19:58N 47°34' W 122°21'0 0.0
2018-Apr-19 19:28N 47°34' W 122°21'0 0.0
2018-Apr-19 18:58N 47°34' W 122°21'0 0.0
2018-Apr-19 18:28N 47°34' W 122°21'0 0.0
2018-Apr-19 17:58N 47°34' W 122°21'0 0.0
2018-Apr-19 17:28N 47°34' W 122°21'0 0.0
2018-Apr-19 16:58N 47°34' W 122°21'0 0.0
2018-Apr-19 16:28N 47°34' W 122°21'0 0.0
2018-Apr-19 15:58N 47°34' W 122°21'0 0.0
2018-Apr-19 15:25N 47°34' W 122°21'0 0.0
2018-Apr-19 14:58N 47°34' W 122°21'0 0.0
2018-Apr-19 14:28N 47°34' W 122°21'1 1.9
2018-Apr-19 14:00N 47°35' W 122°21'0 0.0
2018-Apr-19 13:30N 47°35' W 122°21'0 0.7
2018-Apr-19 13:00N 47°36' W 122°21'3 6.5
2018-Apr-19 12:30N 47°35' W 122°26'4 8.1
2018-Apr-19 12:00N 47°31' W 122°25'4 8.1
2018-Apr-19 11:30N 47°27' W 122°23'4 8.3
2018-Apr-19 11:01N 47°23' W 122°21'4 7.9
2018-Apr-19 10:30N 47°20' W 122°25'3 6.5
2018-Apr-19 10:00N 47°17' W 122°27'2 4.5
2018-Apr-19 09:30N 47°16' W 122°24'1 2.3
2018-Apr-19 09:00N 47°15' W 122°23'0 0.0
2018-Apr-19 08:30N 47°15' W 122°23'0 0.0
2018-Apr-19 07:54N 47°15' W 122°23'0 0.0
2018-Apr-19 07:18N 47°15' W 122°23'0 0.0
2018-Apr-19 07:00N 47°15' W 122°23'0 0.0
2018-Apr-19 06:24N 47°15' W 122°23'0 0.0
2018-Apr-19 03:06N 47°15' W 122°23'0 0.1
2018-Apr-19 03:00N 47°15' W 122°23'0 0.0
2018-Apr-19 02:30N 47°15' W 122°23'0 0.0
2018-Apr-19 01:54N 47°15' W 122°23'0 0.0
2018-Apr-19 01:24N 47°15' W 122°23'0 0.0
2018-Apr-19 01:00N 47°15' W 122°23'0 0.2
2018-Apr-19 00:29N 47°15' W 122°23'0 0.7
2018-Apr-19 00:00N 47°16' W 122°23'0 0.0
2018-Apr-18 23:00N 47°16' W 122°23'0 0.0
2018-Apr-18 17:42N 47°16' W 122°23'0 0.0
2018-Apr-18 17:24N 47°16' W 122°23'0 0.0
2018-Apr-18 16:57N 47°16' W 122°23'0 0.0
2018-Apr-18 16:30N 47°16' W 122°23'0 0.0
2018-Apr-18 16:00N 47°16' W 122°23'0 0.1
2018-Apr-18 15:30N 47°16' W 122°23'2 4.0
2018-Apr-18 15:01N 47°17' W 122°25'1 2.2
2018-Apr-18 14:25N 47°17' W 122°23'0 0.0
2018-Apr-18 09:14N 47°17' W 122°23'0 0.4
2018-Apr-18 08:44N 47°17' W 122°23'1 3.1
2018-Apr-18 08:29N 47°17' W 122°24'1 2.1
2018-Apr-18 08:00N 47°16' W 122°24'1 1.2
2018-Apr-18 07:30N 47°16' W 122°23'0 0.0
2018-Apr-18 07:00N 47°16' W 122°23'0 0.0
2018-Apr-18 06:30N 47°16' W 122°23'0 0.0
2018-Apr-18 06:00N 47°16' W 122°23'0 0.0
2018-Apr-18 04:42N 47°16' W 122°23'0 0.0
2018-Apr-18 04:27N 47°16' W 122°23'0 0.0
2018-Apr-18 04:00N 47°16' W 122°23'0 0.0
2018-Apr-18 03:30N 47°16' W 122°23'0 0.0
2018-Apr-18 03:00N 47°16' W 122°23'0 0.0
2018-Apr-18 02:30N 47°16' W 122°23'0 0.0
2018-Apr-18 01:48N 47°16' W 122°23'0 0.0
2018-Apr-18 01:30N 47°16' W 122°23'0 0.0
2018-Apr-18 00:06N 47°16' W 122°23'0 0.0
2018-Apr-18 00:00N 47°16' W 122°23'0 0.0
2018-Apr-17 23:24N 47°16' W 122°23'0 0.0
2018-Apr-17 23:00N 47°16' W 122°23'0 0.0
2018-Apr-17 22:06N 47°16' W 122°23'0 0.0
2018-Apr-17 21:57N 47°16' W 122°23'0 0.0
2018-Apr-17 21:26N 47°16' W 122°23'0 0.0
2018-Apr-17 19:57N 47°16' W 122°23'0 0.0
2018-Apr-17 19:14N 47°16' W 122°23'0 0.0
2018-Apr-17 18:54N 47°16' W 122°23'0 0.0
2018-Apr-17 18:29N 47°16' W 122°23'0 0.0
2018-Apr-17 17:57N 47°16' W 122°23'0 0.0
2018-Apr-17 17:23N 47°16' W 122°23'0 0.7
2018-Apr-17 17:00N 47°16' W 122°23'1 1.9
2018-Apr-17 16:27N 47°17' W 122°24'1 0.7
2018-Apr-17 15:41N 47°17' W 122°23'0 0.0
2018-Apr-17 15:28N 47°17' W 122°23'1 2.5
2018-Apr-17 15:01N 47°17' W 122°25'0 0.0
2018-Apr-17 03:29N 47°18' W 122°25'1 1.8
2018-Apr-17 02:45N 47°17' W 122°24'1 3.4
2018-Apr-17 02:31N 47°17' W 122°25'1 1.0
2018-Apr-17 02:00N 47°17' W 122°25'0 0.0
2018-Apr-16 13:40N 47°18' W 122°25'1 5.2
2018-Apr-16 13:30N 47°17' W 122°25'2 3.3
2018-Apr-16 13:00N 47°16' W 122°23'1 2.8
2018-Apr-16 12:29N 47°17' W 122°24'0 0.8
2018-Apr-16 12:00N 47°17' W 122°24'1 0.7
2018-Apr-16 10:06N 47°18' W 122°25'0 0.0
2018-Apr-16 09:57N 47°18' W 122°25'0 0.0
2018-Apr-16 05:05N 47°18' W 122°25'0 0.0
2018-Apr-16 04:47N 47°18' W 122°25'0 0.1
2018-Apr-16 04:18N 47°18' W 122°25'1 3.6
2018-Apr-16 03:59N 47°17' W 122°24'0 0.4
2018-Apr-16 03:30N 47°17' W 122°24'2 3.7
2018-Apr-16 03:00N 47°17' W 122°26'2 2.9
2018-Apr-16 02:29N 47°17' W 122°24'1 0.7
2018-Apr-16 01:39N 47°17' W 122°23'0 0.0
2018-Apr-16 01:15N 47°17' W 122°23'0 0.0
2018-Apr-16 00:54N 47°17' W 122°23'2 2.4
2018-Apr-16 00:14N 47°18' W 122°25'0 0.0
2018-Apr-15 23:47N 47°18' W 122°25'0 0.0
2018-Apr-15 23:29N 47°18' W 122°25'0 0.0
2018-Apr-15 19:47N 47°18' W 122°25'0 0.1
2018-Apr-15 19:26N 47°18' W 122°25'0 1.1
2018-Apr-15 19:00N 47°17' W 122°25'1 1.4
2018-Apr-15 18:25N 47°17' W 122°24'1 3.5
2018-Apr-15 18:01N 47°17' W 122°26'1 2.2
2018-Apr-15 17:30N 47°17' W 122°27'2 3.0
2018-Apr-15 17:01N 47°15' W 122°26'2 3.6
2018-Apr-15 16:30N 47°17' W 122°25'0 0.4
2018-Apr-15 15:21N 47°18' W 122°25'0 0.0
2018-Apr-15 14:45N 47°18' W 122°25'0 0.0
2018-Apr-15 11:21N 47°18' W 122°25'0 0.0
2018-Apr-15 10:57N 47°18' W 122°25'0 0.0
2018-Apr-15 10:30N 47°18' W 122°25'0 0.0
2018-Apr-15 08:57N 47°18' W 122°25'0 0.0
2018-Apr-15 08:21N 47°18' W 122°25'0 0.0
2018-Apr-15 06:57N 47°18' W 122°25'0 0.0
2018-Apr-15 05:05N 47°18' W 122°25'0 3.2
2018-Apr-15 05:00N 47°17' W 122°25'2 4.1
2018-Apr-15 04:30N 47°15' W 122°26'1 1.9
2018-Apr-15 04:00N 47°16' W 122°27'2 0.5
2018-Apr-15 00:49N 47°18' W 122°25'1 3.1
2018-Apr-15 00:30N 47°17' W 122°25'1 2.9
2018-Apr-15 00:00N 47°16' W 122°23'0 0.2
2018-Apr-14 23:31N 47°16' W 122°23'2 0.2
2018-Apr-14 12:10N 47°18' W 122°25'0 3.0
2018-Apr-14 12:00N 47°17' W 122°25'1 1.3
2018-Apr-14 11:30N 47°17' W 122°24'1 2.0
2018-Apr-14 10:59N 47°16' W 122°23'1 0.5
2018-Apr-14 09:42N 47°16' W 122°22'1 6.7
2018-Apr-14 09:30N 47°17' W 122°24'1 2.3
2018-Apr-14 09:00N 47°18' W 122°25'0 0.0
2018-Apr-13 22:17N 47°18' W 122°25'0 0.1
2018-Apr-13 21:59N 47°18' W 122°25'2 4.1
2018-Apr-13 21:28N 47°16' W 122°23'1 2.3
2018-Apr-13 20:51N 47°17' W 122°24'1 1.5
2018-Apr-13 20:30N 47°17' W 122°25'0 0.8
2018-Apr-13 20:01N 47°17' W 122°25'1 1.9
2018-Apr-13 19:30N 47°16' W 122°25'2 3.4
2018-Apr-13 19:00N 47°18' W 122°25'0 0.0
2018-Apr-13 17:31N 47°18' W 122°25'0 0.0
2018-Apr-13 17:16N 47°18' W 122°25'0 0.0
2018-Apr-13 14:13N 47°18' W 122°25'0 0.0
2018-Apr-13 13:37N 47°18' W 122°25'0 0.0
2018-Apr-13 13:07N 47°18' W 122°25'0 4.6
2018-Apr-13 13:01N 47°17' W 122°25'2 3.8
2018-Apr-13 12:30N 47°16' W 122°23'1 1.8
2018-Apr-13 12:00N 47°16' W 122°24'2 4.3
2018-Apr-13 11:30N 47°18' W 122°27'1 0.3
2018-Apr-13 07:40N 47°18' W 122°25'0 0.0
2018-Apr-13 07:25N 47°18' W 122°25'0 0.0
2018-Apr-13 06:52N 47°18' W 122°25'0 0.0
2018-Apr-13 06:22N 47°18' W 122°25'0 0.0
2018-Apr-13 05:55N 47°18' W 122°25'0 0.0
2018-Apr-13 05:19N 47°18' W 122°25'0 0.0
2018-Apr-13 04:58N 47°18' W 122°25'0 0.0
2018-Apr-13 04:01N 47°18' W 122°25'0 0.0
2018-Apr-13 02:55N 47°18' W 122°25'0 0.0
2018-Apr-13 00:46N 47°18' W 122°25'0 0.0
2018-Apr-13 00:25N 47°18' W 122°25'0 0.0
2018-Apr-12 23:58N 47°18' W 122°25'0 0.1
2018-Apr-12 23:30N 47°18' W 122°25'1 2.2
2018-Apr-12 23:00N 47°17' W 122°25'1 2.3
2018-Apr-12 22:29N 47°16' W 122°23'2 2.2
2018-Apr-12 21:26N 47°18' W 122°25'0 0.0
2018-Apr-12 15:58N 47°18' W 122°25'2 4.8
2018-Apr-12 15:30N 47°15' W 122°26'0 0.8
2018-Apr-12 15:00N 47°16' W 122°26'1 2.4
2018-Apr-12 14:30N 47°17' W 122°27'1 1.9
2018-Apr-12 14:00N 47°17' W 122°26'1 0.3
2018-Apr-12 10:51N 47°18' W 122°25'0 0.0
2018-Apr-12 10:27N 47°18' W 122°25'0 0.0
2018-Apr-12 08:12N 47°18' W 122°25'0 0.0
2018-Apr-12 06:30N 47°18' W 122°25'0 0.0
2018-Apr-12 05:57N 47°18' W 122°25'0 0.0
2018-Apr-12 04:57N 47°18' W 122°25'0 0.0
2018-Apr-12 03:18N 47°18' W 122°25'0 0.0
2018-Apr-12 01:36N 47°18' W 122°25'0 0.4
2018-Apr-12 01:30N 47°18' W 122°25'0 0.0
2018-Apr-12 00:27N 47°18' W 122°25'0 0.0
2018-Apr-11 21:18N 47°18' W 122°25'0 0.0
2018-Apr-11 20:54N 47°18' W 122°25'0 0.0
2018-Apr-11 14:36N 47°18' W 122°25'0 0.0
2018-Apr-11 14:11N 47°18' W 122°25'0 0.0
2018-Apr-11 14:00N 47°18' W 122°25'1 2.8
2018-Apr-11 13:30N 47°16' W 122°24'1 2.0
2018-Apr-11 13:00N 47°16' W 122°23'2 3.3
2018-Apr-11 12:30N 47°17' W 122°25'1 1.5
2018-Apr-11 11:59N 47°18' W 122°25'0 0.0
2018-Apr-11 10:08N 47°18' W 122°25'0 0.0
2018-Apr-11 09:59N 47°18' W 122°25'0 0.0
2018-Apr-11 06:23N 47°18' W 122°25'0 0.1
2018-Apr-11 05:58N 47°18' W 122°25'0 0.0
2018-Apr-11 05:17N 47°18' W 122°25'0 0.0
2018-Apr-11 04:59N 47°18' W 122°25'0 0.0
2018-Apr-11 02:56N 47°18' W 122°25'0 0.0
2018-Apr-11 02:29N 47°18' W 122°25'0 0.0
2018-Apr-11 01:29N 47°18' W 122°25'0 0.0
2018-Apr-11 00:53N 47°18' W 122°25'0 0.0
2018-Apr-10 23:01N 47°18' W 122°25'0 0.3
2018-Apr-10 22:52N 47°18' W 122°25'0 0.1
2018-Apr-10 22:28N 47°18' W 122°25'0 0.0
2018-Apr-10 21:58N 47°18' W 122°25'0 0.0
2018-Apr-10 20:08N 47°18' W 122°25'0 0.0
2018-Apr-10 19:46N 47°18' W 122°25'0 0.1
2018-Apr-10 19:29N 47°18' W 122°25'0 0.0
2018-Apr-10 13:25N 47°18' W 122°25'0 0.0
2018-Apr-10 12:58N 47°18' W 122°25'0 0.0
2018-Apr-10 10:34N 47°18' W 122°25'0 0.0
2018-Apr-10 10:28N 47°18' W 122°25'0 0.0
2018-Apr-10 09:47N 47°18' W 122°25'0 0.0
2018-Apr-10 09:28N 47°18' W 122°25'0 0.0
2018-Apr-10 08:22N 47°18' W 122°25'0 0.0
2018-Apr-10 07:52N 47°18' W 122°25'0 0.1
2018-Apr-10 07:22N 47°18' W 122°25'0 0.0
2018-Apr-10 05:31N 47°18' W 122°25'0 0.4
2018-Apr-10 05:25N 47°18' W 122°25'0 0.0
2018-Apr-10 04:46N 47°18' W 122°25'0 0.0
2018-Apr-10 04:16N 47°18' W 122°25'0 0.1
2018-Apr-10 03:56N 47°18' W 122°25'0 0.0
2018-Apr-10 03:30N 47°18' W 122°25'0 0.1
2018-Apr-10 03:00N 47°18' W 122°25'0 0.1
2018-Apr-10 02:28N 47°18' W 122°25'0 0.0
2018-Apr-10 02:00N 47°18' W 122°25'0 0.1
2018-Apr-10 01:27N 47°18' W 122°25'0 0.1
2018-Apr-10 01:00N 47°18' W 122°25'1 1.1
2018-Apr-10 00:30N 47°17' W 122°26'2 3.5
2018-Apr-10 00:00N 47°15' W 122°26'1 2.8
2018-Apr-09 23:30N 47°17' W 122°27'  
Track history (hours):
 
Tides and Currents Weather Stations Pressure Air Temp Water Temp Dewpoint Dewpoint Depression Visibility Wind Speed Wind Dir Waves Ship Positions

Dr. Hank Kaplan

Owner: Harley Marine Services, Inc., Seattle, WA. More information available from US FCC via Universal Licensing System and Coast Guard Vessel Documentation Center.

Last reported at 2018-Apr-19 23:00 UTC. Time now 2018-Apr-19 23:21 UTC.
Position N 47°36' W 122°21'.

Length 24 m; draft 5 m.

Type: Tug. MMSI: 367719100.

Date/timePositionNaut miles runAvg speedWind from/ knotsBaromVisibWave heightAir tempDewpointWater temp
2018-Apr-19 23:00N 47°36' W 122°21'1 1.8
2018-Apr-19 22:31N 47°37' W 122°22'2 3.2
2018-Apr-19 22:00N 47°35' W 122°21'0 0.3
2018-Apr-19 21:30N 47°36' W 122°21'1 2.3
2018-Apr-19 21:00N 47°34' W 122°21'0 0.1
2018-Apr-19 20:25N 47°34' W 122°21'0 0.0
2018-Apr-19 19:58N 47°34' W 122°21'0 0.0
2018-Apr-19 19:28N 47°34' W 122°21'0 0.0
2018-Apr-19 18:58N 47°34' W 122°21'0 0.0
2018-Apr-19 18:28N 47°34' W 122°21'0 0.0
2018-Apr-19 17:58N 47°34' W 122°21'0 0.0
2018-Apr-19 17:28N 47°34' W 122°21'0 0.0
2018-Apr-19 16:58N 47°34' W 122°21'0 0.0
2018-Apr-19 16:28N 47°34' W 122°21'0 0.0
2018-Apr-19 15:58N 47°34' W 122°21'0 0.0
2018-Apr-19 15:25N 47°34' W 122°21'0 0.0
2018-Apr-19 14:58N 47°34' W 122°21'0 0.0
2018-Apr-19 14:28N 47°34' W 122°21'1 1.9
2018-Apr-19 14:00N 47°35' W 122°21'0 0.0
2018-Apr-19 13:30N 47°35' W 122°21'0 0.7
2018-Apr-19 13:00N 47°36' W 122°21'3 6.5
2018-Apr-19 12:30N 47°35' W 122°26'4 8.1
2018-Apr-19 12:00N 47°31' W 122°25'4 8.1
2018-Apr-19 11:30N 47°27' W 122°23'4 8.3
2018-Apr-19 11:01N 47°23' W 122°21'4 7.9
2018-Apr-19 10:30N 47°20' W 122°25'3 6.5
2018-Apr-19 10:00N 47°17' W 122°27'2 4.5
2018-Apr-19 09:30N 47°16' W 122°24'1 2.3
2018-Apr-19 09:00N 47°15' W 122°23'0 0.0
2018-Apr-19 08:30N 47°15' W 122°23'0 0.0
2018-Apr-19 07:54N 47°15' W 122°23'0 0.0
2018-Apr-19 07:18N 47°15' W 122°23'0 0.0
2018-Apr-19 07:00N 47°15' W 122°23'0 0.0
2018-Apr-19 06:24N 47°15' W 122°23'0 0.0
2018-Apr-19 03:06N 47°15' W 122°23'0 0.1
2018-Apr-19 03:00N 47°15' W 122°23'0 0.0
2018-Apr-19 02:30N 47°15' W 122°23'0 0.0
2018-Apr-19 01:54N 47°15' W 122°23'0 0.0
2018-Apr-19 01:24N 47°15' W 122°23'0 0.0
2018-Apr-19 01:00N 47°15' W 122°23'0 0.2
2018-Apr-19 00:29N 47°15' W 122°23'0 0.7
2018-Apr-19 00:00N 47°16' W 122°23'0 0.0
2018-Apr-18 23:00N 47°16' W 122°23'0 0.0
2018-Apr-18 17:42N 47°16' W 122°23'0 0.0
2018-Apr-18 17:24N 47°16' W 122°23'0 0.0
2018-Apr-18 16:57N 47°16' W 122°23'0 0.0
2018-Apr-18 16:30N 47°16' W 122°23'0 0.0
2018-Apr-18 16:00N 47°16' W 122°23'0 0.1
2018-Apr-18 15:30N 47°16' W 122°23'2 4.0
2018-Apr-18 15:01N 47°17' W 122°25'1 2.2
2018-Apr-18 14:25N 47°17' W 122°23'0 0.0
2018-Apr-18 09:14N 47°17' W 122°23'0 0.4
2018-Apr-18 08:44N 47°17' W 122°23'1 3.1
2018-Apr-18 08:29N 47°17' W 122°24'1 2.1
2018-Apr-18 08:00N 47°16' W 122°24'1 1.2
2018-Apr-18 07:30N 47°16' W 122°23'0 0.0
2018-Apr-18 07:00N 47°16' W 122°23'0 0.0
2018-Apr-18 06:30N 47°16' W 122°23'0 0.0
2018-Apr-18 06:00N 47°16' W 122°23'0 0.0
2018-Apr-18 04:42N 47°16' W 122°23'0 0.0
2018-Apr-18 04:27N 47°16' W 122°23'0 0.0
2018-Apr-18 04:00N 47°16' W 122°23'0 0.0
2018-Apr-18 03:30N 47°16' W 122°23'0 0.0
2018-Apr-18 03:00N 47°16' W 122°23'0 0.0
2018-Apr-18 02:30N 47°16' W 122°23'0 0.0
2018-Apr-18 01:48N 47°16' W 122°23'0 0.0
2018-Apr-18 01:30N 47°16' W 122°23'0 0.0
2018-Apr-18 00:06N 47°16' W 122°23'0 0.0
2018-Apr-18 00:00N 47°16' W 122°23'0 0.0
2018-Apr-17 23:24N 47°16' W 122°23'0 0.0
2018-Apr-17 23:00N 47°16' W 122°23'0 0.0
2018-Apr-17 22:06N 47°16' W 122°23'0 0.0
2018-Apr-17 21:57N 47°16' W 122°23'0 0.0
2018-Apr-17 21:26N 47°16' W 122°23'0 0.0
2018-Apr-17 19:57N 47°16' W 122°23'0 0.0
2018-Apr-17 19:14N 47°16' W 122°23'0 0.0
2018-Apr-17 18:54N 47°16' W 122°23'0 0.0
2018-Apr-17 18:29N 47°16' W 122°23'0 0.0
2018-Apr-17 17:57N 47°16' W 122°23'0 0.0
2018-Apr-17 17:23N 47°16' W 122°23'0 0.7
2018-Apr-17 17:00N 47°16' W 122°23'1 1.9
2018-Apr-17 16:27N 47°17' W 122°24'1 0.7
2018-Apr-17 15:41N 47°17' W 122°23'0 0.0
2018-Apr-17 15:28N 47°17' W 122°23'1 2.5
2018-Apr-17 15:01N 47°17' W 122°25'0 0.0
2018-Apr-17 03:29N 47°18' W 122°25'1 1.8
2018-Apr-17 02:45N 47°17' W 122°24'1 3.4
2018-Apr-17 02:31N 47°17' W 122°25'1 1.0
2018-Apr-17 02:00N 47°17' W 122°25'0 0.0
2018-Apr-16 13:40N 47°18' W 122°25'1 5.2
2018-Apr-16 13:30N 47°17' W 122°25'2 3.3
2018-Apr-16 13:00N 47°16' W 122°23'1 2.8
2018-Apr-16 12:29N 47°17' W 122°24'0 0.8
2018-Apr-16 12:00N 47°17' W 122°24'1 0.7
2018-Apr-16 10:06N 47°18' W 122°25'0 0.0
2018-Apr-16 09:57N 47°18' W 122°25'0 0.0
2018-Apr-16 05:05N 47°18' W 122°25'0 0.0
2018-Apr-16 04:47N 47°18' W 122°25'0 0.1
2018-Apr-16 04:18N 47°18' W 122°25'1 3.6
2018-Apr-16 03:59N 47°17' W 122°24'0 0.4
2018-Apr-16 03:30N 47°17' W 122°24'2 3.7
2018-Apr-16 03:00N 47°17' W 122°26'2 2.9
2018-Apr-16 02:29N 47°17' W 122°24'1 0.7
2018-Apr-16 01:39N 47°17' W 122°23'0 0.0
2018-Apr-16 01:15N 47°17' W 122°23'0 0.0
2018-Apr-16 00:54N 47°17' W 122°23'2 2.4
2018-Apr-16 00:14N 47°18' W 122°25'0 0.0
2018-Apr-15 23:47N 47°18' W 122°25'0 0.0
2018-Apr-15 23:29N 47°18' W 122°25'0 0.0
2018-Apr-15 19:47N 47°18' W 122°25'0 0.1
2018-Apr-15 19:26N 47°18' W 122°25'0 1.1
2018-Apr-15 19:00N 47°17' W 122°25'1 1.4
2018-Apr-15 18:25N 47°17' W 122°24'1 3.5
2018-Apr-15 18:01N 47°17' W 122°26'1 2.2
2018-Apr-15 17:30N 47°17' W 122°27'2 3.0
2018-Apr-15 17:01N 47°15' W 122°26'2 3.6
2018-Apr-15 16:30N 47°17' W 122°25'0 0.4
2018-Apr-15 15:21N 47°18' W 122°25'0 0.0
2018-Apr-15 14:45N 47°18' W 122°25'0 0.0
2018-Apr-15 11:21N 47°18' W 122°25'0 0.0
2018-Apr-15 10:57N 47°18' W 122°25'0 0.0
2018-Apr-15 10:30N 47°18' W 122°25'0 0.0
2018-Apr-15 08:57N 47°18' W 122°25'0 0.0
2018-Apr-15 08:21N 47°18' W 122°25'0 0.0
2018-Apr-15 06:57N 47°18' W 122°25'0 0.0
2018-Apr-15 05:05N 47°18' W 122°25'0 3.2
2018-Apr-15 05:00N 47°17' W 122°25'2 4.1
2018-Apr-15 04:30N 47°15' W 122°26'1 1.9
2018-Apr-15 04:00N 47°16' W 122°27'2 0.5
2018-Apr-15 00:49N 47°18' W 122°25'1 3.1
2018-Apr-15 00:30N 47°17' W 122°25'1 2.9
2018-Apr-15 00:00N 47°16' W 122°23'0 0.2
2018-Apr-14 23:31N 47°16' W 122°23'2 0.2
2018-Apr-14 12:10N 47°18' W 122°25'0 3.0
2018-Apr-14 12:00N 47°17' W 122°25'1 1.3
2018-Apr-14 11:30N 47°17' W 122°24'1 2.0
2018-Apr-14 10:59N 47°16' W 122°23'1 0.5
2018-Apr-14 09:42N 47°16' W 122°22'1 6.7
2018-Apr-14 09:30N 47°17' W 122°24'1 2.3
2018-Apr-14 09:00N 47°18' W 122°25'0 0.0
2018-Apr-13 22:17N 47°18' W 122°25'0 0.1
2018-Apr-13 21:59N 47°18' W 122°25'2 4.1
2018-Apr-13 21:28N 47°16' W 122°23'1 2.3
2018-Apr-13 20:51N 47°17' W 122°24'1 1.5
2018-Apr-13 20:30N 47°17' W 122°25'0 0.8
2018-Apr-13 20:01N 47°17' W 122°25'1 1.9
2018-Apr-13 19:30N 47°16' W 122°25'2 3.4
2018-Apr-13 19:00N 47°18' W 122°25'0 0.0
2018-Apr-13 17:31N 47°18' W 122°25'0 0.0
2018-Apr-13 17:16N 47°18' W 122°25'0 0.0
2018-Apr-13 14:13N 47°18' W 122°25'0 0.0
2018-Apr-13 13:37N 47°18' W 122°25'0 0.0
2018-Apr-13 13:07N 47°18' W 122°25'0 4.6
2018-Apr-13 13:01N 47°17' W 122°25'2 3.8
2018-Apr-13 12:30N 47°16' W 122°23'1 1.8
2018-Apr-13 12:00N 47°16' W 122°24'2 4.3
2018-Apr-13 11:30N 47°18' W 122°27'1 0.3
2018-Apr-13 07:40N 47°18' W 122°25'0 0.0
2018-Apr-13 07:25N 47°18' W 122°25'0 0.0
2018-Apr-13 06:52N 47°18' W 122°25'0 0.0
2018-Apr-13 06:22N 47°18' W 122°25'0 0.0
2018-Apr-13 05:55N 47°18' W 122°25'0 0.0
2018-Apr-13 05:19N 47°18' W 122°25'0 0.0
2018-Apr-13 04:58N 47°18' W 122°25'0 0.0
2018-Apr-13 04:01N 47°18' W 122°25'0 0.0
2018-Apr-13 02:55N 47°18' W 122°25'0 0.0
2018-Apr-13 00:46N 47°18' W 122°25'0 0.0
2018-Apr-13 00:25N 47°18' W 122°25'0 0.0
2018-Apr-12 23:58N 47°18' W 122°25'0 0.1
2018-Apr-12 23:30N 47°18' W 122°25'1 2.2
2018-Apr-12 23:00N 47°17' W 122°25'1 2.3
2018-Apr-12 22:29N 47°16' W 122°23'2 2.2
2018-Apr-12 21:26N 47°18' W 122°25'0 0.0
2018-Apr-12 15:58N 47°18' W 122°25'2 4.8
2018-Apr-12 15:30N 47°15' W 122°26'0 0.8
2018-Apr-12 15:00N 47°16' W 122°26'1 2.4
2018-Apr-12 14:30N 47°17' W 122°27'1 1.9
2018-Apr-12 14:00N 47°17' W 122°26'1 0.3
2018-Apr-12 10:51N 47°18' W 122°25'0 0.0
2018-Apr-12 10:27N 47°18' W 122°25'0 0.0
2018-Apr-12 08:12N 47°18' W 122°25'0 0.0
2018-Apr-12 06:30N 47°18' W 122°25'0 0.0
2018-Apr-12 05:57N 47°18' W 122°25'0 0.0
2018-Apr-12 04:57N 47°18' W 122°25'0 0.0
2018-Apr-12 03:18N 47°18' W 122°25'0 0.0
2018-Apr-12 01:36N 47°18' W 122°25'0 0.4
2018-Apr-12 01:30N 47°18' W 122°25'0 0.0
2018-Apr-12 00:27N 47°18' W 122°25'0 0.0
2018-Apr-11 21:18N 47°18' W 122°25'0 0.0
2018-Apr-11 20:54N 47°18' W 122°25'0 0.0
2018-Apr-11 14:36N 47°18' W 122°25'0 0.0
2018-Apr-11 14:11N 47°18' W 122°25'0 0.0
2018-Apr-11 14:00N 47°18' W 122°25'1 2.8
2018-Apr-11 13:30N 47°16' W 122°24'1 2.0
2018-Apr-11 13:00N 47°16' W 122°23'2 3.3
2018-Apr-11 12:30N 47°17' W 122°25'1 1.5
2018-Apr-11 11:59N 47°18' W 122°25'0 0.0
2018-Apr-11 10:08N 47°18' W 122°25'0 0.0
2018-Apr-11 09:59N 47°18' W 122°25'0 0.0
2018-Apr-11 06:23N 47°18' W 122°25'0 0.1
2018-Apr-11 05:58N 47°18' W 122°25'0 0.0
2018-Apr-11 05:17N 47°18' W 122°25'0 0.0
2018-Apr-11 04:59N 47°18' W 122°25'0 0.0
2018-Apr-11 02:56N 47°18' W 122°25'0 0.0
2018-Apr-11 02:29N 47°18' W 122°25'0 0.0
2018-Apr-11 01:29N 47°18' W 122°25'0 0.0
2018-Apr-11 00:53N 47°18' W 122°25'0 0.0
2018-Apr-10 23:01N 47°18' W 122°25'0 0.3
2018-Apr-10 22:52N 47°18' W 122°25'0 0.1
2018-Apr-10 22:28N 47°18' W 122°25'0 0.0
2018-Apr-10 21:58N 47°18' W 122°25'0 0.0
2018-Apr-10 20:08N 47°18' W 122°25'0 0.0
2018-Apr-10 19:46N 47°18' W 122°25'0 0.1
2018-Apr-10 19:29N 47°18' W 122°25'0 0.0
2018-Apr-10 13:25N 47°18' W 122°25'0 0.0
2018-Apr-10 12:58N 47°18' W 122°25'0 0.0
2018-Apr-10 10:34N 47°18' W 122°25'0 0.0
2018-Apr-10 10:28N 47°18' W 122°25'0 0.0
2018-Apr-10 09:47N 47°18' W 122°25'0 0.0
2018-Apr-10 09:28N 47°18' W 122°25'0 0.0
2018-Apr-10 08:22N 47°18' W 122°25'0 0.0
2018-Apr-10 07:52N 47°18' W 122°25'0 0.1
2018-Apr-10 07:22N 47°18' W 122°25'0 0.0
2018-Apr-10 05:31N 47°18' W 122°25'0 0.4
2018-Apr-10 05:25N 47°18' W 122°25'0 0.0
2018-Apr-10 04:46N 47°18' W 122°25'0 0.0
2018-Apr-10 04:16N 47°18' W 122°25'0 0.1
2018-Apr-10 03:56N 47°18' W 122°25'0 0.0
2018-Apr-10 03:30N 47°18' W 122°25'0 0.1
2018-Apr-10 03:00N 47°18' W 122°25'0 0.1
2018-Apr-10 02:28N 47°18' W 122°25'0 0.0
2018-Apr-10 02:00N 47°18' W 122°25'0 0.1
2018-Apr-10 01:27N 47°18' W 122°25'0 0.1
2018-Apr-10 01:00N 47°18' W 122°25'1 1.1
2018-Apr-10 00:30N 47°17' W 122°26'2 3.5
2018-Apr-10 00:00N 47°15' W 122°26'1 2.8
2018-Apr-09 23:30N 47°17' W 122°27'  

Dump ship's entire track history